createdAt,value
2023-09-24T00:01:17.169Z,3.90
2023-09-24T00:04:05.427Z,3.85
2023-09-24T00:06:53.372Z,3.90
2023-09-24T00:09:41.646Z,5.03
2023-09-24T00:12:29.617Z,4.43
2023-09-24T00:15:19.317Z,2.90
2023-09-24T00:18:07.505Z,3.95
2023-09-24T00:20:56.306Z,4.65
2023-09-24T00:23:45.019Z,3.72
2023-09-24T00:26:33.053Z,5.57
2023-09-24T00:29:21.143Z,3.73
2023-09-24T00:32:11.168Z,3.67
2023-09-24T00:34:59.514Z,3.80
2023-09-24T00:37:47.511Z,4.97
2023-09-24T00:40:35.550Z,4.05
2023-09-24T00:43:27.194Z,4.97
2023-09-24T00:46:15.345Z,4.15
2023-09-24T00:49:04.828Z,3.47
2023-09-24T00:51:55.921Z,5.05
2023-09-24T00:54:44.885Z,7.43
2023-09-24T00:57:35.750Z,3.73
2023-09-24T01:00:26.300Z,4.38
2023-09-24T01:03:15.437Z,6.28
2023-09-24T01:06:07.862Z,3.47
2023-09-24T01:08:56.156Z,6.03
2023-09-24T01:11:46.744Z,4.47
2023-09-24T01:14:35.628Z,5.20
2023-09-24T01:17:24.824Z,4.32
2023-09-24T01:20:14.374Z,4.03
2023-09-24T01:23:05.370Z,4.45
2023-09-24T01:25:53.810Z,5.17
2023-09-24T01:28:41.991Z,4.88
2023-09-24T01:31:32.071Z,3.60
2023-09-24T01:34:20.810Z,5.57
2023-09-24T01:37:10.330Z,4.80
2023-09-24T01:40:00.329Z,4.90
2023-09-24T01:42:48.492Z,3.90
2023-09-24T01:45:41.412Z,4.15
2023-09-24T01:48:29.839Z,4.18
2023-09-24T01:51:18.498Z,4.22
2023-09-24T01:54:08.236Z,4.33
2023-09-24T01:56:59.294Z,4.10
2023-09-24T01:59:47.499Z,5.32
2023-09-24T02:02:35.918Z,4.05
2023-09-24T02:05:24.969Z,8.60
2023-09-24T02:08:13.306Z,5.37
2023-09-24T02:11:01.242Z,5.97
2023-09-24T02:13:50.761Z,4.70
2023-09-24T02:16:39.406Z,6.43
2023-09-24T02:19:27.847Z,6.30
2023-09-24T02:22:21.262Z,6.83
2023-09-24T02:25:11.454Z,4.35
2023-09-24T02:27:59.618Z,4.53
2023-09-24T02:30:49.448Z,5.63
2023-09-24T02:33:38.392Z,5.53
2023-09-24T02:36:26.687Z,6.30
2023-09-24T02:39:14.793Z,4.70
2023-09-24T02:42:02.910Z,5.22
2023-09-24T02:44:51.330Z,5.18
2023-09-24T02:47:40.837Z,4.35
2023-09-24T02:50:30.553Z,4.53
2023-09-24T02:53:19.246Z,5.50
2023-09-24T02:56:07.177Z,4.88
2023-09-24T02:58:55.039Z,6.40
2023-09-24T03:01:48.068Z,3.85
2023-09-24T03:04:37.435Z,6.50
2023-09-24T03:07:25.672Z,6.63
2023-09-24T03:10:14.774Z,6.30
2023-09-24T03:13:03.612Z,3.80
2023-09-24T03:15:52.875Z,6.03
2023-09-24T03:18:40.993Z,4.80
2023-09-24T03:21:30.638Z,5.25
2023-09-24T03:24:18.887Z,4.32
2023-09-24T03:27:07.053Z,5.05
2023-09-24T03:29:55.053Z,4.50
2023-09-24T03:32:43.245Z,5.13
2023-09-24T03:35:31.398Z,6.78
2023-09-24T03:38:21.151Z,7.05
2023-09-24T03:41:09.845Z,5.45
2023-09-24T03:43:58.072Z,8.27
2023-09-24T03:46:49.096Z,4.30
2023-09-24T03:49:37.196Z,5.55
2023-09-24T03:52:25.106Z,5.22
2023-09-24T03:55:17.503Z,5.18
2023-09-24T03:58:07.187Z,6.40
2023-09-24T04:00:55.120Z,5.20
2023-09-24T04:03:43.302Z,6.20
2023-09-24T04:06:31.376Z,4.95
2023-09-24T04:09:19.434Z,6.35
2023-09-24T04:12:09.902Z,5.35
2023-09-24T04:14:58.383Z,7.53
2023-09-24T04:17:47.360Z,9.57
2023-09-24T04:20:35.893Z,8.30
2023-09-24T04:23:24.134Z,8.32
2023-09-24T04:26:19.720Z,8.98
2023-09-24T04:29:09.893Z,7.87
2023-09-24T04:31:59.711Z,5.97
2023-09-24T04:34:47.989Z,8.65
2023-09-24T04:37:40.104Z,9.55
2023-09-24T04:40:28.270Z,8.52
2023-09-24T04:43:17.892Z,6.77
2023-09-24T04:46:07.184Z,8.15
2023-09-24T04:48:55.234Z,9.43
2023-09-24T04:51:43.293Z,6.53
2023-09-24T04:54:31.164Z,7.25
2023-09-24T04:57:19.530Z,6.30
2023-09-24T05:00:07.989Z,5.43
2023-09-24T05:02:57.496Z,9.20
2023-09-24T05:05:45.680Z,7.30
2023-09-24T05:08:33.773Z,5.43
2023-09-24T05:11:21.699Z,5.83
2023-09-24T05:14:09.633Z,6.45
2023-09-24T05:16:57.515Z,7.35
2023-09-24T05:19:46.784Z,5.50
2023-09-24T05:22:34.626Z,6.60
2023-09-24T05:25:22.419Z,7.17
2023-09-24T05:28:10.370Z,7.25
2023-09-24T05:30:58.764Z,8.80
2023-09-24T05:33:48.535Z,4.93
2023-09-24T05:36:38.039Z,5.28
2023-09-24T05:39:25.876Z,7.43
2023-09-24T05:42:13.789Z,6.35
2023-09-24T05:45:01.707Z,7.07
2023-09-24T05:47:49.798Z,7.57
2023-09-24T05:50:37.774Z,7.38
2023-09-24T05:53:27.022Z,7.93
2023-09-24T05:56:14.886Z,6.93
2023-09-24T05:59:02.811Z,6.82
2023-09-24T06:01:51.065Z,7.65
2023-09-24T06:04:39.185Z,8.48
2023-09-24T06:07:29.406Z,6.87
2023-09-24T06:10:19.848Z,7.38
2023-09-24T06:13:07.975Z,5.78
2023-09-24T06:16:00.414Z,9.98
2023-09-24T06:18:48.605Z,7.43
2023-09-24T06:21:36.647Z,5.93
2023-09-24T06:24:26.619Z,8.10
2023-09-24T06:27:17.994Z,8.82
2023-09-24T06:30:06.454Z,8.27
2023-09-24T06:32:54.406Z,7.95
2023-09-24T06:35:43.098Z,8.90
2023-09-24T06:38:31.306Z,7.20
2023-09-24T06:41:19.214Z,9.45
2023-09-24T06:44:10.388Z,7.22
2023-09-24T06:46:58.202Z,10.52
2023-09-24T06:49:49.183Z,10.10
2023-09-24T06:52:37.940Z,9.32
2023-09-24T06:55:26.205Z,10.10
2023-09-24T06:58:14.326Z,7.75
2023-09-24T07:01:04.645Z,8.18
2023-09-24T07:03:52.988Z,9.37
2023-09-24T07:06:42.181Z,7.85
2023-09-24T07:09:30.457Z,6.53
2023-09-24T07:12:18.445Z,9.43
2023-09-24T07:15:07.002Z,9.48
2023-09-24T07:17:56.640Z,8.30
2023-09-24T07:20:49.091Z,9.15
2023-09-24T07:23:38.550Z,6.57
2023-09-24T07:26:27.201Z,5.47
2023-09-24T07:29:15.722Z,6.07
2023-09-24T07:32:03.757Z,8.37
2023-09-24T07:34:53.536Z,5.65
2023-09-24T07:37:41.449Z,7.22
2023-09-24T07:40:29.599Z,5.80
2023-09-24T07:43:17.550Z,6.30
2023-09-24T07:46:05.509Z,5.03
2023-09-24T07:48:53.529Z,5.70
2023-09-24T07:51:43.426Z,4.82
2023-09-24T07:54:31.237Z,4.18
2023-09-24T07:57:19.437Z,4.35
2023-09-24T08:00:08.502Z,5.47
2023-09-24T08:02:56.457Z,6.90
2023-09-24T08:05:44.702Z,5.25
2023-09-24T08:08:50.022Z,4.57
2023-09-24T08:11:41.444Z,5.68
2023-09-24T08:14:29.384Z,4.60
2023-09-24T08:17:17.229Z,5.40
2023-09-24T08:20:05.329Z,6.50
2023-09-24T08:22:53.455Z,3.78
2023-09-24T08:25:42.750Z,3.95
2023-09-24T08:28:30.706Z,5.37
2023-09-24T08:31:18.827Z,6.75
2023-09-24T08:34:06.712Z,4.07
2023-09-24T08:36:54.748Z,5.53
2023-09-24T08:39:42.698Z,4.70
2023-09-24T08:42:33.599Z,4.13
2023-09-24T08:45:21.566Z,4.18
2023-09-24T08:48:10.557Z,3.72
2023-09-24T08:50:58.985Z,3.67
2023-09-24T08:53:46.918Z,4.18
2023-09-24T08:56:34.834Z,5.43
2023-09-24T08:59:24.078Z,5.63
2023-09-24T09:02:12.023Z,3.70
2023-09-24T09:05:00.045Z,3.83
2023-09-24T09:07:55.216Z,4.72
2023-09-24T09:10:43.465Z,5.70
2023-09-24T09:13:31.325Z,5.17
2023-09-24T09:16:21.858Z,4.28
2023-09-24T09:19:11.486Z,4.32
2023-09-24T09:22:17.246Z,3.95
2023-09-24T09:25:06.133Z,3.15
2023-09-24T09:27:54.080Z,5.50
2023-09-24T09:30:41.933Z,3.78
2023-09-24T09:33:32.505Z,3.45
2023-09-24T09:36:24.074Z,2.45
2023-09-24T09:39:11.951Z,3.22
2023-09-24T09:42:00.244Z,3.17
2023-09-24T09:44:50.366Z,3.90
2023-09-24T09:47:49.976Z,2.95
2023-09-24T09:50:44.947Z,3.90
2023-09-24T09:53:35.165Z,3.83
2023-09-24T09:56:24.265Z,5.10
2023-09-24T09:59:12.299Z,4.88
2023-09-24T10:02:01.314Z,3.78
2023-09-24T10:04:49.650Z,4.78
2023-09-24T10:07:39.583Z,3.40
2023-09-24T10:10:44.080Z,3.83
2023-09-24T10:13:43.622Z,2.92
2023-09-24T10:16:32.436Z,3.58
2023-09-24T10:19:20.408Z,4.10
2023-09-24T10:22:23.109Z,2.85
2023-09-24T10:25:29.656Z,2.37
2023-09-24T10:28:18.918Z,4.22
2023-09-24T10:31:07.840Z,3.10
2023-09-24T10:33:56.523Z,4.43
2023-09-24T10:36:44.732Z,2.30
2023-09-24T10:39:32.659Z,2.50
2023-09-24T10:42:20.648Z,3.63
2023-09-24T10:45:28.664Z,4.70
2023-09-24T10:48:17.641Z,3.88
2023-09-24T10:51:05.585Z,4.22
2023-09-24T10:53:53.562Z,3.53
2023-09-24T10:56:41.672Z,3.95
2023-09-24T10:59:36.409Z,4.13
2023-09-24T11:02:27.370Z,3.92
2023-09-24T11:05:15.632Z,4.05
2023-09-24T11:08:03.509Z,3.80
2023-09-24T11:10:51.688Z,3.67
2023-09-24T11:13:40.573Z,3.72
2023-09-24T11:16:28.562Z,2.70
2023-09-24T11:19:38.919Z,4.35
2023-09-24T11:22:27.866Z,3.90
2023-09-24T11:25:17.561Z,2.60
2023-09-24T11:28:06.353Z,4.57
2023-09-24T11:30:54.759Z,3.30
2023-09-24T11:33:42.725Z,3.40
2023-09-24T11:36:32.086Z,3.40
2023-09-24T11:39:20.168Z,3.15
2023-09-24T11:42:08.194Z,3.55
2023-09-24T11:44:57.418Z,3.50
2023-09-24T11:47:45.295Z,3.17
2023-09-24T11:50:33.513Z,2.67
2023-09-24T11:53:24.720Z,6.10
2023-09-24T11:56:12.949Z,4.50
2023-09-24T11:59:01.043Z,3.58
2023-09-24T12:01:48.933Z,3.88
2023-09-24T12:04:36.806Z,3.50
2023-09-24T12:07:25.451Z,3.92
2023-09-24T12:10:14.704Z,5.20
2023-09-24T12:13:05.342Z,3.38
2023-09-24T12:15:53.460Z,3.03
2023-09-24T12:18:42.692Z,3.73
2023-09-24T12:21:32.901Z,4.38
2023-09-24T12:24:20.745Z,4.65
2023-09-24T12:27:10.064Z,3.75
2023-09-24T12:29:58.006Z,4.07
2023-09-24T12:32:45.904Z,5.53
2023-09-24T12:35:34.155Z,4.03
2023-09-24T12:38:21.981Z,3.78
2023-09-24T12:41:11.732Z,2.42
2023-09-24T12:44:00.998Z,3.22
2023-09-24T12:46:48.858Z,3.93
2023-09-24T12:49:36.762Z,3.63
2023-09-24T12:52:25.412Z,3.92
2023-09-24T12:55:14.203Z,3.60
2023-09-24T12:58:02.017Z,2.72
2023-09-24T13:00:51.183Z,4.97
2023-09-24T13:03:39.274Z,3.72
2023-09-24T13:06:27.680Z,4.10
2023-09-24T13:09:18.011Z,5.53
2023-09-24T13:12:06.162Z,3.75
2023-09-24T13:14:54.088Z,3.60
2023-09-24T13:17:43.584Z,4.35
2023-09-24T13:20:31.549Z,3.45
2023-09-24T13:23:19.350Z,4.70
2023-09-24T13:26:07.140Z,4.30
2023-09-24T13:28:54.978Z,3.23
2023-09-24T13:31:43.789Z,4.20
2023-09-24T13:34:33.268Z,4.32
2023-09-24T13:37:21.133Z,4.15
2023-09-24T13:40:23.044Z,4.80
2023-09-24T13:43:20.276Z,4.33
2023-09-24T13:46:08.243Z,4.20
2023-09-24T13:48:56.313Z,3.83
2023-09-24T13:51:45.524Z,4.13
2023-09-24T13:54:34.054Z,3.63
2023-09-24T13:57:21.970Z,3.67
2023-09-24T14:00:10.397Z,4.32
2023-09-24T14:02:58.435Z,4.10
2023-09-24T14:05:46.573Z,4.80
2023-09-24T14:08:53.920Z,3.78
2023-09-24T14:11:59.368Z,3.10
2023-09-24T14:14:47.444Z,3.22
2023-09-24T14:17:35.401Z,4.13
2023-09-24T14:20:23.296Z,4.03
2023-09-24T14:23:11.190Z,3.05
2023-09-24T14:26:00.424Z,2.80
2023-09-24T14:28:48.572Z,3.30
2023-09-24T14:31:36.827Z,3.08
2023-09-24T14:34:24.929Z,4.82
2023-09-24T14:37:12.756Z,4.20
2023-09-24T14:40:00.665Z,4.27
2023-09-24T14:42:49.955Z,3.83
2023-09-24T14:45:38.830Z,4.95
2023-09-24T14:48:26.875Z,3.47
2023-09-24T14:51:18.689Z,4.75
2023-09-24T14:54:06.843Z,3.07
2023-09-24T14:56:57.548Z,4.00
2023-09-24T14:59:47.543Z,3.85
2023-09-24T15:02:35.882Z,3.05
2023-09-24T15:05:24.844Z,3.17
2023-09-24T15:08:12.859Z,3.33
2023-09-24T15:11:02.943Z,3.40
2023-09-24T15:13:50.898Z,3.80
2023-09-24T15:16:40.225Z,3.78
2023-09-24T15:19:28.103Z,3.88
2023-09-24T15:22:15.888Z,3.87
2023-09-24T15:25:04.059Z,2.83
2023-09-24T15:27:51.902Z,4.07
2023-09-24T15:30:41.248Z,2.80
2023-09-24T15:33:30.781Z,4.72
2023-09-24T15:36:19.113Z,3.87
2023-09-24T15:39:07.965Z,2.83
2023-09-24T15:41:55.849Z,4.13
2023-09-24T15:44:43.718Z,2.88
2023-09-24T15:47:31.589Z,3.45
2023-09-24T15:50:20.804Z,3.20
2023-09-24T15:53:08.795Z,3.00
2023-09-24T15:55:56.655Z,3.55
2023-09-24T15:58:44.801Z,4.18
2023-09-24T16:01:32.764Z,5.30
2023-09-24T16:04:20.597Z,3.80
2023-09-24T16:07:09.897Z,4.83
2023-09-24T16:09:58.138Z,4.03
2023-09-24T16:12:45.945Z,3.80
2023-09-24T16:15:35.373Z,4.25
2023-09-24T16:18:23.416Z,3.42
2023-09-24T16:21:11.525Z,5.93
2023-09-24T16:24:00.786Z,4.55
2023-09-24T16:26:48.804Z,2.70
2023-09-24T16:29:36.674Z,3.30
2023-09-24T16:32:24.555Z,2.97
2023-09-24T16:35:12.511Z,3.70
2023-09-24T16:38:00.325Z,3.33
2023-09-24T16:40:56.970Z,2.92
2023-09-24T16:43:45.974Z,5.45
2023-09-24T16:46:33.972Z,4.20
2023-09-24T16:49:21.845Z,3.83
2023-09-24T16:52:09.841Z,3.67
2023-09-24T16:54:58.556Z,3.15
2023-09-24T16:57:48.151Z,2.65
2023-09-24T17:00:36.398Z,5.65
2023-09-24T17:03:24.401Z,3.10
2023-09-24T17:06:12.615Z,3.08
2023-09-24T17:09:00.542Z,3.00
2023-09-24T17:11:48.485Z,5.35
2023-09-24T17:14:37.738Z,6.38
2023-09-24T17:17:25.621Z,3.20
2023-09-24T17:20:14.064Z,2.80
2023-09-24T17:23:02.609Z,3.45
2023-09-24T17:25:50.432Z,2.95
2023-09-24T17:28:38.359Z,3.00
2023-09-24T17:31:29.776Z,4.97
2023-09-24T17:34:18.670Z,3.20
2023-09-24T17:37:06.889Z,4.53
2023-09-24T17:39:54.796Z,5.05
2023-09-24T17:42:43.885Z,3.65
2023-09-24T17:45:31.853Z,4.60
2023-09-24T17:48:21.202Z,3.40
2023-09-24T17:51:10.759Z,3.45
2023-09-24T17:53:58.790Z,3.97
2023-09-24T17:56:47.821Z,3.60
2023-09-24T17:59:35.629Z,5.30
2023-09-24T18:02:23.640Z,3.60
2023-09-24T18:05:12.946Z,3.95
2023-09-24T18:08:00.824Z,4.95
2023-09-24T18:10:48.705Z,3.08
2023-09-24T18:13:36.815Z,3.83
2023-09-24T18:16:25.101Z,3.92
2023-09-24T18:19:13.040Z,4.30
2023-09-24T18:22:02.231Z,3.58
2023-09-24T18:24:52.011Z,3.75
2023-09-24T18:27:39.940Z,3.70
2023-09-24T18:30:28.134Z,5.00
2023-09-24T18:33:16.221Z,3.78
2023-09-24T18:36:05.063Z,4.53
2023-09-24T18:38:54.457Z,3.67
2023-09-24T18:41:42.393Z,3.70
2023-09-24T18:44:31.837Z,3.03
2023-09-24T18:47:19.654Z,3.65
2023-09-24T18:50:07.857Z,5.55
2023-09-24T18:52:55.800Z,3.63
2023-09-24T18:55:45.639Z,4.23
2023-09-24T18:58:34.115Z,4.22
2023-09-24T19:01:22.032Z,4.50
2023-09-24T19:04:10.142Z,3.15
2023-09-24T19:06:58.511Z,4.22
2023-09-24T19:09:47.218Z,4.67
2023-09-24T19:12:36.972Z,3.80
2023-09-24T19:15:24.886Z,4.25
2023-09-24T19:18:12.887Z,3.65
2023-09-24T19:21:00.964Z,4.60
2023-09-24T19:23:49.017Z,3.77
2023-09-24T19:26:37.068Z,3.42
2023-09-24T19:29:26.259Z,3.97
2023-09-24T19:32:14.045Z,4.90
2023-09-24T19:35:02.017Z,4.07
2023-09-24T19:37:49.914Z,5.43
2023-09-24T19:40:38.301Z,3.63
2023-09-24T19:43:26.157Z,4.05
2023-09-24T19:46:17.203Z,4.32
2023-09-24T19:49:06.126Z,3.70
2023-09-24T19:51:54.054Z,4.57
2023-09-24T19:54:42.801Z,4.95
2023-09-24T19:57:30.796Z,5.40
2023-09-24T20:00:19.572Z,5.32
2023-09-24T20:03:09.022Z,3.50
2023-09-24T20:05:57.313Z,4.83
2023-09-24T20:08:47.074Z,4.25
2023-09-24T20:11:35.699Z,5.55
2023-09-24T20:14:23.632Z,3.75
2023-09-24T20:17:11.502Z,5.43
2023-09-24T20:20:00.747Z,4.30
2023-09-24T20:22:48.582Z,4.80
2023-09-24T20:25:38.425Z,3.97
2023-09-24T20:28:41.233Z,7.55
2023-09-24T20:31:34.225Z,6.47
2023-09-24T20:34:22.229Z,5.67
2023-09-24T20:37:11.484Z,6.55
2023-09-24T20:39:59.651Z,3.72
2023-09-24T20:42:47.460Z,3.40
2023-09-24T20:45:35.301Z,3.13
2023-09-24T20:48:23.338Z,4.30
2023-09-24T20:51:11.390Z,7.03
2023-09-24T20:54:00.636Z,4.10
2023-09-24T20:56:48.501Z,5.25
2023-09-24T20:59:37.393Z,3.85
2023-09-24T21:02:25.270Z,3.80
2023-09-24T21:05:13.219Z,2.95
2023-09-24T21:08:01.109Z,3.50
2023-09-24T21:10:50.362Z,4.25
2023-09-24T21:13:39.116Z,4.82
2023-09-24T21:16:26.950Z,3.50
2023-09-24T21:19:14.777Z,3.55
2023-09-24T21:22:02.597Z,3.60
2023-09-24T21:24:52.603Z,3.72
2023-09-24T21:27:42.483Z,5.07
2023-09-24T21:30:30.433Z,3.70
2023-09-24T21:33:18.400Z,3.78
2023-09-24T21:36:07.002Z,4.22
2023-09-24T21:38:55.442Z,4.63
2023-09-24T21:41:43.306Z,4.45
2023-09-24T21:44:32.601Z,4.50
2023-09-24T21:47:20.696Z,4.72
2023-09-24T21:50:09.279Z,3.80
2023-09-24T21:52:57.126Z,4.93
2023-09-24T21:55:44.977Z,4.53
2023-09-24T21:58:32.825Z,4.40
2023-09-24T22:01:22.128Z,3.67
2023-09-24T22:04:10.434Z,4.07
2023-09-24T22:06:58.502Z,4.38
2023-09-24T22:09:46.406Z,4.60
2023-09-24T22:12:34.756Z,5.10
2023-09-24T22:15:22.834Z,3.28
2023-09-24T22:18:12.764Z,4.45
2023-09-24T22:21:02.571Z,4.28
2023-09-24T22:23:50.568Z,3.78
2023-09-24T22:26:39.203Z,3.30
2023-09-24T22:29:27.096Z,5.68
2023-09-24T22:32:14.923Z,3.72
2023-09-24T22:35:04.160Z,4.15
2023-09-24T22:37:52.023Z,3.67
2023-09-24T22:40:39.936Z,3.73
2023-09-24T22:43:27.850Z,4.57
2023-09-24T22:46:18.498Z,5.20
2023-09-24T22:49:06.473Z,3.53
2023-09-24T22:51:55.701Z,3.85
2023-09-24T22:54:44.402Z,4.23
2023-09-24T22:57:32.399Z,4.15
2023-09-24T23:00:20.354Z,5.15
2023-09-24T23:03:08.424Z,4.30
2023-09-24T23:05:56.395Z,4.05
2023-09-24T23:08:45.575Z,4.77
2023-09-24T23:11:35.959Z,5.32
2023-09-24T23:14:24.996Z,4.50
2023-09-24T23:17:13.888Z,4.30
2023-09-24T23:20:03.376Z,4.00
2023-09-24T23:22:52.346Z,5.13
2023-09-24T23:25:44.648Z,5.13
2023-09-24T23:28:33.017Z,4.07
2023-09-24T23:31:21.020Z,3.92
2023-09-24T23:34:11.510Z,3.65
2023-09-24T23:37:00.837Z,4.20
2023-09-24T23:39:48.859Z,4.07
2023-09-24T23:42:38.112Z,4.65
2023-09-24T23:45:26.094Z,3.90
2023-09-24T23:48:14.292Z,4.45
2023-09-24T23:51:02.443Z,4.50
2023-09-24T23:53:50.360Z,4.35
2023-09-24T23:56:38.244Z,4.05
2023-09-24T23:59:27.436Z,3.90
